地図

経路データ

SID SEASON NUMBER BASIN SUBBASIN NAME ISO_TIME NATURE LAT LON WMO_WIND WMO_PRES WMO_AGENCY TRACK_TYPE DIST2LAND LANDFALL IFLAG USA_AGENCY USA_ATCF_ID USA_LAT USA_LON USA_RECORD USA_STATUS USA_WIND USA_PRES USA_SSHS USA_R34_NE USA_R34_SE USA_R34_SW USA_R34_NW USA_R50_NE USA_R50_SE USA_R50_SW USA_R50_NW USA_R64_NE USA_R64_SE USA_R64_SW USA_R64_NW USA_POCI USA_ROCI USA_RMW USA_EYE TOKYO_LAT TOKYO_LON TOKYO_GRADE TOKYO_WIND TOKYO_PRES TOKYO_R50_DIR TOKYO_R50_LONG TOKYO_R50_SHORT TOKYO_R30_DIR TOKYO_R30_LONG TOKYO_R30_SHORT TOKYO_LAND CMA_LAT CMA_LON CMA_CAT CMA_WIND CMA_PRES HKO_LAT HKO_LON HKO_CAT HKO_WIND HKO_PRES NEWDELHI_LAT NEWDELHI_LON NEWDELHI_GRADE NEWDELHI_WIND NEWDELHI_PRES NEWDELHI_CI NEWDELHI_DP NEWDELHI_POCI REUNION_LAT REUNION_LON REUNION_TYPE REUNION_WIND REUNION_PRES REUNION_TNUM REUNION_CI REUNION_RMW REUNION_R34_NE REUNION_R34_SE REUNION_R34_SW REUNION_R34_NW REUNION_R50_NE REUNION_R50_SE REUNION_R50_SW REUNION_R50_NW REUNION_R64_NE REUNION_R64_SE REUNION_R64_SW REUNION_R64_NW BOM_LAT BOM_LON BOM_TYPE BOM_WIND BOM_PRES BOM_TNUM BOM_CI BOM_RMW BOM_R34_NE BOM_R34_SE BOM_R34_SW BOM_R34_NW BOM_R50_NE BOM_R50_SE BOM_R50_SW BOM_R50_NW BOM_R64_NE BOM_R64_SE BOM_R64_SW BOM_R64_NW BOM_ROCI BOM_POCI BOM_EYE BOM_POS_METHOD BOM_PRES_METHOD NADI_LAT NADI_LON NADI_CAT NADI_WIND NADI_PRES WELLINGTON_LAT WELLINGTON_LON WELLINGTON_WIND WELLINGTON_PRES DS824_LAT DS824_LON DS824_STAGE DS824_WIND DS824_PRES TD9636_LAT TD9636_LON TD9636_STAGE TD9636_WIND TD9636_PRES TD9635_LAT TD9635_LON TD9635_WIND TD9635_PRES TD9635_ROCI NEUMANN_LAT NEUMANN_LON NEUMANN_CLASS NEUMANN_WIND NEUMANN_PRES MLC_LAT MLC_LON MLC_CLASS MLC_WIND MLC_PRES USA_GUST BOM_GUST BOM_GUST_PER REUNION_GUST REUNION_GUST_PER USA_SEAHGT USA_SEARAD_NE USA_SEARAD_SE USA_SEARAD_SW USA_SEARAD_NW STORM_SPEED STORM_DIR
1921040S18052 1921 7 SI MM NOT_NAMED 1921-02-09 06:00:00 NR -17.8000 51.6000 reunion main 221 212 _____O________ -1 -17.8000 51.6000 99 9.90000 2 213
1921040S18052 1921 7 SI MM NOT_NAMED 1921-02-09 09:00:00 NR -17.8877 51.5424 main 212 212 _____P________ -1 -17.8877 51.5424 99 2 213
1921040S18052 1921 7 SI MM NOT_NAMED 1921-02-09 12:00:00 NR -17.9766 51.4843 main 214 203 _____P________ -1 -17.9766 51.4843 99 2 212
1921040S18052 1921 7 SI MM NOT_NAMED 1921-02-09 15:00:00 NR -18.0678 51.4253 main 205 205 _____P________ -1 -18.0678 51.4253 99 2 211
1921040S18052 1921 7 SI MM NOT_NAMED 1921-02-09 18:00:00 NR -18.1625 51.3649 main 208 198 _____P________ -1 -18.1625 51.3649 99 2 211
1921040S18052 1921 7 SI MM NOT_NAMED 1921-02-09 21:00:00 NR -18.2619 51.3026 main 200 190 _____P________ -1 -18.2619 51.3026 99 2 210
1921040S18052 1921 7 SI MM NOT_NAMED 1921-02-10 00:00:00 NR -18.3672 51.2380 main 191 191 _____P________ -1 -18.3672 51.2380 99 3 210
1921040S18052 1921 7 SI MM NOT_NAMED 1921-02-10 03:00:00 NR -18.4795 51.1706 main 192 182 _____P________ -1 -18.4795 51.1706 99 3 210
1921040S18052 1921 7 SI MM NOT_NAMED 1921-02-10 06:00:00 NR -18.6000 51.1000 reunion main 184 177 _____O________ -1 -18.6000 51.1000 99 9.90000 3 209
1921040S18052 1921 7 SI MM NOT_NAMED 1921-02-10 09:00:00 NR -18.7295 51.0262 main 177 177 _____P________ -1 -18.7295 51.0262 99 3 208
1921040S18052 1921 7 SI MM NOT_NAMED 1921-02-10 12:00:00 NR -18.8672 50.9509 main 185 176 _____P________ -1 -18.8672 50.9509 99 3 207
1921040S18052 1921 7 SI MM NOT_NAMED 1921-02-10 15:00:00 NR -19.0120 50.8766 main 181 174 _____P________ -1 -19.0120 50.8766 99 3 205
1921040S18052 1921 7 SI MM NOT_NAMED 1921-02-10 18:00:00 NR -19.1626 50.8055 main 177 171 _____P________ -1 -19.1626 50.8055 99 3 203
1921040S18052 1921 7 SI MM NOT_NAMED 1921-02-10 21:00:00 NR -19.3179 50.7399 main 171 171 _____P________ -1 -19.3179 50.7399 99 3 201
1921040S18052 1921 7 SI MM NOT_NAMED 1921-02-11 00:00:00 NR -19.4766 50.6822 main 177 171 _____P________ -1 -19.4766 50.6822 99 3 196
1921040S18052 1921 7 SI MM NOT_NAMED 1921-02-11 03:00:00 NR -19.6377 50.6348 main 171 171 _____P________ -1 -19.6377 50.6348 99 3 194
1921040S18052 1921 7 SI MM NOT_NAMED 1921-02-11 06:00:00 NR -19.8000 50.6000 reunion main 180 180 _____O________ -1 -19.8000 50.6000 99 9.90000 3 195
1921040S18052 1921 7 SI MM NOT_NAMED 1921-02-11 09:00:00 NR -19.9385 50.5489 main 175 175 _____P________ -1 -19.9385 50.5489 99 3 198
1921040S18052 1921 7 SI MM NOT_NAMED 1921-02-11 12:00:00 NR -20.0767 50.5061 main 177 177 _____P________ -1 -20.0767 50.5061 99 3 194
1921040S18052 1921 7 SI MM NOT_NAMED 1921-02-11 15:00:00 NR -20.2182 50.4766 main 178 178 _____P________ -1 -20.2182 50.4766 99 3 189
1921040S18052 1921 7 SI MM NOT_NAMED 1921-02-11 18:00:00 NR -20.3666 50.4652 main 182 182 _____P________ -1 -20.3666 50.4652 99 3 0
1921040S18052 1921 7 SI MM NOT_NAMED 1921-02-11 21:00:00 NR -20.5254 50.4768 main 185 185 _____P________ -1 -20.5254 50.4768 99 3 174
1921040S18052 1921 7 SI MM NOT_NAMED 1921-02-12 00:00:00 NR -20.6982 50.5164 main 193 193 _____P________ -1 -20.6982 50.5164 99 4 164
1921040S18052 1921 7 SI MM NOT_NAMED 1921-02-12 03:00:00 NR -20.8886 50.5892 main 212 212 _____P________ -1 -20.8886 50.5892 99 4 157
1921040S18052 1921 7 SI MM NOT_NAMED 1921-02-12 06:00:00 NR -21.1000 50.7000 reunion main 231 231 _____O________ -1 -21.1000 50.7000 99 9.90000 5 151
1921040S18052 1921 7 SI MM NOT_NAMED 1921-02-12 09:00:00 NR -21.3349 50.8524 main 259 259 _____P________ -1 -21.3349 50.8524 99 6 147
1921040S18052 1921 7 SI MM NOT_NAMED 1921-02-12 12:00:00 NR -21.5912 51.0430 main 277 277 _____P________ -1 -21.5912 51.0430 99 7 144
1921040S18052 1921 7 SI MM NOT_NAMED 1921-02-12 15:00:00 NR -21.8658 51.2667 main 314 314 _____P________ -1 -21.8658 51.2667 99 7 142
1921040S18052 1921 7 SI MM NOT_NAMED 1921-02-12 18:00:00 NR -22.1553 51.5183 main 342 342 _____P________ -1 -22.1553 51.5183 99 8 140
1921040S18052 1921 7 SI MM NOT_NAMED 1921-02-12 21:00:00 NR -22.4567 51.7928 main 378 365 _____P________ -1 -22.4567 51.7928 99 8 139
1921040S18052 1921 7 SI MM NOT_NAMED 1921-02-13 00:00:00 NR -22.7667 52.0847 main 369 353 _____P________ -1 -22.7667 52.0847 99 8 139
1921040S18052 1921 7 SI MM NOT_NAMED 1921-02-13 03:00:00 NR -23.0822 52.3889 main 359 355 _____P________ -1 -23.0822 52.3889 99 9 138
1921040S18052 1921 7 SI MM NOT_NAMED 1921-02-13 06:00:00 NR -23.4000 52.7000 reunion main 355 _____O________ -1 -23.4000 52.7000 99 9.90000 9 138

IBTrACS Databaseについて

本データベースは、米国NOAAが公開する1842年以降の世界の熱帯低気圧のベストトラックデータアーカイブInternational Best Track Archive for Climate Stewardship (IBTrACS)を、ウェブで閲覧しやすい形式に変換したものです。

最終更新日:2021-10-08